Time;durP1;ratioP1;P1;durP2;ratioP2;P2;SDS_P1;SDS_P2;PMS_P1;PMS_P2;Temp;Humidity;BMP_temperature;BMP_pressure;BME280_temperature;BME280_humidity;BME280_pressure;Samples;Min_cycle;Max_cycle;Signal;HPM_P1;HPM_P2
2022/11/16 00:01:19;;;;;;;12.93;11.13;;;10.80;99.90;;;;;;7361353;19;20018;-46
2022/11/16 00:03:46;;;;;;;15.40;11.40;;;10.80;99.90;;;;;;7363017;19;20015;-46
2022/11/16 00:06:13;;;;;;;13.15;11.50;;;10.80;99.90;;;;;;7360909;19;20018;-47
2022/11/16 00:08:43;;;;;;;11.93;10.45;;;10.80;99.90;;;;;;7360927;19;20023;-49
2022/11/16 00:11:13;;;;;;;11.02;9.07;;;10.70;99.90;;;;;;7364356;19;20022;-47
2022/11/16 00:13:42;;;;;;;11.60;9.27;;;10.80;99.90;;;;;;7366201;19;20840;-49
2022/11/16 00:16:14;;;;;;;14.80;10.68;;;10.70;99.90;;;;;;7357805;19;20078;-48
2022/11/16 00:18:41;;;;;;;11.23;10.13;;;10.70;99.90;;;;;;7360252;19;20038;-46
2022/11/16 00:21:07;;;;;;;13.63;11.30;;;10.70;99.90;;;;;;7361699;19;20387;-46
2022/11/16 00:23:37;;;;;;;10.77;9.57;;;10.80;99.90;;;;;;7363489;19;20018;-48
2022/11/16 00:26:05;;;;;;;11.90;10.70;;;10.80;99.90;;;;;;7360802;19;20571;-46
2022/11/16 00:28:31;;;;;;;12.02;10.02;;;10.70;99.90;;;;;;7358613;19;20039;-49
2022/11/16 00:31:03;;;;;;;13.07;11.73;;;10.80;99.90;;;;;;7359927;19;20487;-47
2022/11/16 00:33:29;;;;;;;11.88;10.68;;;10.80;99.90;;;;;;7362074;19;20023;-46
2022/11/16 00:35:56;;;;;;;14.95;11.48;;;10.80;99.90;;;;;;7358621;19;20119;-41
2022/11/16 00:38:23;;;;;;;15.88;11.05;;;10.80;99.90;;;;;;7360909;19;20021;-42
2022/11/16 00:40:49;;;;;;;12.82;11.48;;;10.80;99.90;;;;;;7362447;19;20022;-42
2022/11/16 00:43:16;;;;;;;12.85;11.48;;;10.80;99.90;;;;;;7364244;19;20374;-40
2022/11/16 00:45:43;;;;;;;12.90;10.43;;;10.80;99.90;;;;;;7368312;19;20023;-41
2022/11/16 00:48:10;;;;;;;15.15;12.00;;;10.80;99.90;;;;;;7371209;19;20462;-40
2022/11/16 00:50:37;;;;;;;11.43;9.95;;;10.80;99.90;;;;;;7372022;19;20026;-39
2022/11/16 00:53:04;;;;;;;14.15;12.20;;;10.80;99.90;;;;;;7370499;19;20544;-40
2022/11/16 00:55:31;;;;;;;12.02;9.90;;;10.80;99.90;;;;;;7371856;19;20506;-40
2022/11/16 00:57:57;;;;;;;13.35;11.95;;;10.80;99.90;;;;;;7369790;19;20041;-39
2022/11/16 01:00:24;;;;;;;14.25;11.60;;;10.80;99.90;;;;;;7372927;19;20548;-40
2022/11/16 01:02:53;;;;;;;12.85;11.52;;;10.80;99.90;;;;;;7370513;19;20017;-39
2022/11/16 01:05:20;;;;;;;13.60;12.20;;;10.80;99.90;;;;;;7371292;19;20041;-39
2022/11/16 01:07:47;;;;;;;13.77;9.68;;;10.80;99.90;;;;;;7367655;19;20014;-41
2022/11/16 01:10:16;;;;;;;14.77;11.55;;;10.80;99.90;;;;;;7368260;19;20399;-39
2022/11/16 01:12:44;;;;;;;13.85;12.35;;;10.80;99.90;;;;;;7369582;19;20015;-40
2022/11/16 01:15:12;;;;;;;15.20;12.15;;;10.90;99.90;;;;;;7373424;19;20048;-41
2022/11/16 01:17:39;;;;;;;13.40;11.25;;;10.80;99.90;;;;;;7371898;19;20430;-39
2022/11/16 01:20:09;;;;;;;15.15;11.52;;;10.90;99.90;;;;;;7369176;19;20861;-40
2022/11/16 01:22:37;;;;;;;13.30;11.35;;;10.90;99.90;;;;;;7370868;19;20376;-40
2022/11/16 01:25:04;;;;;;;14.40;11.32;;;10.90;99.90;;;;;;7371928;19;20355;-39
2022/11/16 01:27:30;;;;;;;12.95;11.48;;;10.90;99.90;;;;;;7367682;19;20026;-42
2022/11/16 01:29:59;;;;;;;14.75;12.10;;;10.90;99.90;;;;;;7371025;19;20018;-41
2022/11/16 01:32:26;;;;;;;13.70;11.85;;;10.90;99.90;;;;;;7370127;19;20018;-40
2022/11/16 01:34:53;;;;;;;14.15;11.73;;;10.90;99.90;;;;;;7370585;19;20382;-40
2022/11/16 01:37:26;;;;;;;13.57;11.70;;;10.90;99.90;;;;;;7370387;19;20047;-41
2022/11/16 01:39:53;;;;;;;14.00;11.32;;;10.90;99.90;;;;;;7367734;19;20021;-40
2022/11/16 01:42:22;;;;;;;16.38;10.98;;;10.90;99.90;;;;;;7370068;19;20429;-40
2022/11/16 01:45:15;;;;;;;13.00;10.65;;;10.90;99.90;;;;;;7367666;19;20076;-40
2022/11/16 01:47:42;;;;;;;13.57;11.32;;;10.90;99.90;;;;;;7367047;19;20018;-39
2022/11/16 01:50:15;;;;;;;13.15;10.90;;;10.90;99.90;;;;;;7366245;19;20027;-39
2022/11/16 01:52:57;;;;;;;12.38;10.82;;;10.90;99.90;;;;;;7368174;19;20354;-39
2022/11/16 01:55:28;;;;;;;13.60;10.48;;;10.90;99.90;;;;;;7368421;19;20015;-40
2022/11/16 01:58:23;;;;;;;14.15;10.50;;;10.90;99.90;;;;;;7368044;19;20501;-40
2022/11/16 02:00:57;;;;;;;12.52;11.23;;;10.90;99.90;;;;;;7368401;19;21188;-40
2022/11/16 02:03:37;;;;;;;14.98;10.25;;;11.00;99.90;;;;;;7368004;19;20704;-39
2022/11/16 02:06:10;;;;;;;12.95;10.77;;;11.00;99.90;;;;;;7366548;19;21279;-45
2022/11/16 02:11:56;;;;;;;15.98;11.48;;;10.90;99.90;;;;;;7368720;19;20023;-45
2022/11/16 02:14:25;;;;;;;11.77;10.00;;;10.90;99.90;;;;;;7368381;19;21302;-48
2022/11/16 02:17:29;;;;;;;11.65;9.30;;;11.00;99.90;;;;;;7370344;19;20031;-50
2022/11/16 02:20:07;;;;;;;14.82;10.93;;;10.90;99.90;;;;;;7371479;19;20026;-48
2022/11/16 02:22:49;;;;;;;14.32;11.05;;;10.90;99.90;;;;;;7362328;19;20509;-49
2022/11/16 02:25:31;;;;;;;11.90;9.68;;;10.90;99.90;;;;;;7368802;19;20018;-49
2022/11/16 02:28:06;;;;;;;12.95;9.95;;;10.90;99.90;;;;;;7366506;19;20600;-49
2022/11/16 02:30:35;;;;;;;17.10;10.90;;;10.90;99.90;;;;;;7371934;19;20011;-48
2022/11/16 02:33:09;;;;;;;12.18;9.25;;;10.90;99.90;;;;;;7364753;19;20025;-49
2022/11/16 02:35:42;;;;;;;11.27;9.38;;;10.90;99.90;;;;;;7367442;19;20053;-49
2022/11/16 02:38:16;;;;;;;12.40;9.18;;;10.90;99.90;;;;;;7364623;19;21103;-49
2022/11/16 02:40:46;;;;;;;14.82;9.02;;;10.90;99.90;;;;;;7367404;19;20513;-49
2022/11/16 02:43:28;;;;;;;16.52;10.23;;;10.90;99.90;;;;;;7366929;19;20033;-49
2022/11/16 02:45:59;;;;;;;12.63;9.23;;;10.90;99.90;;;;;;7364526;19;20015;-50
2022/11/16 02:48:29;;;;;;;;;;;10.90;99.90;;;;;;7366584;19;20029;-40
2022/11/16 02:50:56;;;;;;;12.38;9.35;;;10.90;99.90;;;;;;7366122;19;19940;-41
2022/11/16 02:53:24;;;;;;;11.35;9.43;;;10.90;99.90;;;;;;7366322;19;21046;-41
2022/11/16 02:55:52;;;;;;;10.50;8.82;;;10.90;99.90;;;;;;7365797;19;20042;-41
2022/11/16 02:58:24;;;;;;;12.27;7.65;;;10.90;99.90;;;;;;7367633;19;20026;-42
2022/11/16 03:01:02;;;;;;;11.52;7.22;;;10.90;99.90;;;;;;7364717;19;20376;-41
2022/11/16 03:03:47;;;;;;;11.52;8.57;;;10.90;99.90;;;;;;7369046;19;20118;-47
2022/11/16 03:06:26;;;;;;;13.70;9.18;;;10.90;99.90;;;;;;7364771;19;20724;-45
2022/11/16 03:09:05;;;;;;;11.35;8.77;;;10.90;99.90;;;;;;7363624;19;20077;-47
2022/11/16 03:14:27;;;;;;;12.00;9.85;;;10.90;99.90;;;;;;7364229;19;20021;-45
2022/11/16 03:16:59;;;;;;;12.60;8.90;;;10.90;99.90;;;;;;7365851;19;20010;-44
2022/11/16 03:19:44;;;;;;;14.02;10.65;;;10.90;99.90;;;;;;7369886;19;20022;-42
2022/11/16 03:22:14;;;;;;;11.88;9.65;;;10.80;99.90;;;;;;7365332;19;20018;-40
2022/11/16 03:24:41;;;;;;;16.27;10.40;;;10.80;99.90;;;;;;7360788;19;20011;-49
2022/11/16 03:27:37;;;;;;;17.05;10.52;;;10.80;99.90;;;;;;7362871;19;20132;-45
2022/11/16 03:30:20;;;;;;;13.88;10.68;;;10.80;99.90;;;;;;7363436;19;20014;-50
2022/11/16 03:33:02;;;;;;;18.58;12.35;;;10.80;99.90;;;;;;7359734;19;20018;-52
2022/11/16 03:35:53;;;;;;;21.15;11.75;;;10.80;99.90;;;;;;7368500;19;20027;-45
2022/11/16 03:38:22;;;;;;;16.42;11.88;;;10.70;99.90;;;;;;7360929;19;20379;-44
2022/11/16 03:40:49;;;;;;;16.25;12.43;;;10.70;99.90;;;;;;7364851;19;20371;-46
2022/11/16 03:43:18;;;;;;;15.40;11.15;;;10.70;99.90;;;;;;7365382;19;20023;-49
2022/11/16 03:45:46;;;;;;;18.90;11.20;;;10.70;99.90;;;;;;7362606;19;20022;-47
2022/11/16 03:48:12;;;;;;;15.93;12.00;;;10.70;99.90;;;;;;7363681;19;20371;-46
2022/11/16 03:50:41;;;;;;;18.05;12.90;;;10.70;99.90;;;;;;7363195;19;20022;-51
2022/11/16 03:53:08;;;;;;;17.73;12.95;;;10.70;99.90;;;;;;7362092;19;20023;-46
2022/11/16 03:55:37;;;;;;;20.40;13.10;;;10.70;99.90;;;;;;7364253;19;20022;-46
2022/11/16 03:58:04;;;;;;;17.25;13.13;;;10.60;99.90;;;;;;7362320;19;20029;-47
2022/11/16 04:00:30;;;;;;;18.75;13.60;;;10.70;99.90;;;;;;7363864;19;20026;-45
2022/11/16 04:02:56;;;;;;;20.23;15.00;;;10.60;99.90;;;;;;7362915;19;20025;-46
2022/11/16 04:25:24;;;;;;;25.42;16.02;;;10.60;99.90;;;;;;7366285;19;20546;-44
2022/11/16 04:38:53;;;;;;;23.48;16.55;;;10.60;99.90;;;;;;7362839;19;20747;-44
2022/11/16 04:44:04;;;;;;;26.23;17.15;;;10.60;99.90;;;;;;7364645;19;20795;-45
2022/11/16 04:49:16;;;;;;;25.42;15.98;;;10.60;99.90;;;;;;7364275;19;20010;-47
2022/11/16 04:51:43;;;;;;;24.38;16.30;;;10.60;99.90;;;;;;7361711;19;20018;-44
2022/11/16 04:54:09;;;;;;;26.13;15.93;;;10.50;99.90;;;;;;7364420;19;20026;-45
2022/11/16 04:56:35;;;;;;;20.25;16.17;;;10.60;99.90;;;;;;7358998;19;20571;-46
2022/11/16 04:59:03;;;;;;;32.22;17.27;;;10.60;99.90;;;;;;7363335;19;20279;-45
2022/11/16 05:04:14;;;;;;;28.23;18.13;;;10.60;99.90;;;;;;7365948;19;20495;-47
2022/11/16 05:06:40;;;;;;;29.40;18.17;;;10.60;99.90;;;;;;7361389;19;20490;-44
2022/11/16 05:09:07;;;;;;;27.38;18.90;;;10.60;99.90;;;;;;7358345;19;20019;-44
2022/11/16 05:11:33;;;;;;;38.03;20.08;;;10.60;99.90;;;;;;7361928;19;20029;-46
2022/11/16 05:14:01;;;;;;;28.98;18.25;;;10.50;99.90;;;;;;7362921;19;20014;-45
2022/11/16 05:16:28;;;;;;;26.20;19.40;;;10.60;99.90;;;;;;7363461;19;20027;-46
2022/11/16 05:21:47;;;;;;;33.88;21.52;;;10.60;99.90;;;;;;7362383;19;20024;-50
2022/11/16 05:26:59;;;;;;;43.50;30.48;;;10.50;99.90;;;;;;7360561;19;20457;-45
2022/11/16 05:29:25;;;;;;;51.53;39.20;;;10.50;99.90;;;;;;7359684;19;20042;-45
2022/11/16 05:31:52;;;;;;;58.45;48.08;;;10.60;99.90;;;;;;7369150;19;20030;-46
2022/11/16 05:34:18;;;;;;;74.97;52.70;;;10.50;99.90;;;;;;7370171;19;20015;-45
2022/11/16 05:36:45;;;;;;;73.93;51.88;;;10.50;99.90;;;;;;7367353;19;20026;-45
2022/11/16 05:39:11;;;;;;;76.30;55.63;;;10.50;99.90;;;;;;7369210;19;20616;-46
2022/11/16 05:41:40;;;;;;;85.40;60.88;;;10.50;99.90;;;;;;7367191;19;20606;-45
2022/11/16 05:44:07;;;;;;;101.53;76.43;;;10.50;99.90;;;;;;7371161;19;20042;-45
2022/11/16 05:46:33;;;;;;;102.38;73.78;;;10.50;99.90;;;;;;7361615;19;21316;-48
2022/11/16 05:49:01;;;;;;;101.18;79.35;;;10.60;99.90;;;;;;7363584;19;20018;-45
2022/11/16 05:51:27;;;;;;;113.68;86.00;;;10.60;99.90;;;;;;7368648;19;20359;-44
2022/11/16 05:53:55;;;;;;;106.32;82.70;;;10.50;99.90;;;;;;7368703;19;20409;-47
2022/11/16 05:56:22;;;;;;;103.15;73.32;;;10.60;99.90;;;;;;7368693;19;20357;-46
2022/11/16 05:58:49;;;;;;;93.00;76.10;;;10.60;99.90;;;;;;7368162;19;20046;-46
2022/11/16 06:01:16;;;;;;;92.63;67.07;;;10.50;99.90;;;;;;7368696;19;20485;-45
2022/11/16 06:03:42;;;;;;;77.32;58.47;;;10.50;99.90;;;;;;7371565;19;20488;-44
2022/11/16 06:06:09;;;;;;;58.65;36.47;;;10.60;99.90;;;;;;7369353;19;20019;-43
2022/11/16 06:08:35;;;;;;;39.70;27.90;;;10.50;99.90;;;;;;7366077;19;20039;-47
2022/11/16 06:11:06;;;;;;;54.33;28.98;;;10.50;99.90;;;;;;7366050;19;20022;-50
2022/11/16 06:13:36;;;;;;;44.92;25.85;;;10.50;99.90;;;;;;7368202;19;20163;-45
2022/11/16 06:16:03;;;;;;;44.10;24.95;;;10.50;99.90;;;;;;7364005;19;20015;-46
2022/11/16 06:18:31;;;;;;;38.53;22.45;;;10.60;99.90;;;;;;7368288;19;20494;-47
2022/11/16 06:20:57;;;;;;;40.25;22.48;;;10.50;99.90;;;;;;7364543;19;20014;-48
2022/11/16 06:23:25;;;;;;;39.53;23.98;;;10.50;99.90;;;;;;7367936;19;20458;-46
2022/11/16 06:25:55;;;;;;;42.03;23.63;;;10.60;99.90;;;;;;7365979;19;20022;-47
2022/11/16 06:28:24;;;;;;;69.82;27.80;;;10.60;99.90;;;;;;7370687;19;20025;-47
2022/11/16 06:30:51;;;;;;;41.03;24.15;;;10.50;99.90;;;;;;7365585;19;20366;-49
2022/11/16 06:33:17;;;;;;;50.85;26.67;;;10.60;99.90;;;;;;7368167;19;20018;-44
2022/11/16 06:35:44;;;;;;;32.17;20.67;;;10.60;99.90;;;;;;7367419;19;20367;-49
2022/11/16 06:38:17;;;;;;;40.05;23.65;;;10.50;99.90;;;;;;7366866;19;20026;-47
2022/11/16 06:40:45;;;;;;;36.53;22.58;;;10.60;99.90;;;;;;7363898;19;20010;-45
2022/11/16 06:43:12;;;;;;;42.70;23.17;;;10.60;99.90;;;;;;7368453;19;20018;-46
2022/11/16 06:45:38;;;;;;;42.72;24.35;;;10.60;99.90;;;;;;7359364;19;20022;-44
2022/11/16 06:48:05;;;;;;;49.15;25.27;;;10.60;99.90;;;;;;7361609;19;20052;-44
2022/11/16 06:50:31;;;;;;;47.15;23.88;;;10.60;99.90;;;;;;7358895;19;20530;-46
2022/11/16 06:53:01;;;;;;;47.75;24.50;;;10.60;99.90;;;;;;7359112;19;20375;-46
2022/11/16 06:55:28;;;;;;;52.53;23.85;;;10.60;99.90;;;;;;7363021;19;20618;-46
2022/11/16 06:57:55;;;;;;;61.97;27.90;;;10.60;99.90;;;;;;7369854;19;20019;-44
2022/11/16 07:00:22;;;;;;;47.85;23.38;;;10.60;99.90;;;;;;7366947;19;20067;-45
2022/11/16 07:02:50;;;;;;;50.13;24.73;;;10.60;99.90;;;;;;7365501;19;20052;-44
2022/11/16 07:05:18;;;;;;;39.55;23.15;;;10.60;99.90;;;;;;7363077;19;20486;-45
2022/11/16 07:07:46;;;;;;;58.75;26.08;;;10.60;99.90;;;;;;7368430;19;20046;-44
2022/11/16 07:10:13;;;;;;;30.23;20.27;;;10.60;99.90;;;;;;7368982;19;20508;-48
2022/11/16 07:12:41;;;;;;;46.42;21.73;;;10.50;99.90;;;;;;7369519;19;20018;-45
2022/11/16 07:15:08;;;;;;;39.42;22.80;;;10.60;99.90;;;;;;7368577;19;20021;-47
2022/11/16 07:17:38;;;;;;;43.10;23.42;;;10.60;99.90;;;;;;7370815;19;20031;-44
2022/11/16 07:20:05;;;;;;;38.30;21.55;;;10.60;99.90;;;;;;7369801;19;20377;-47
2022/11/16 07:22:32;;;;;;;39.60;20.90;;;10.60;99.90;;;;;;7368633;19;20026;-44
2022/11/16 07:25:00;;;;;;;53.35;23.45;;;10.50;99.90;;;;;;7369732;19;20022;-47
2022/11/16 07:27:27;;;;;;;52.45;25.13;;;10.50;99.90;;;;;;7368665;19;20018;-45
2022/11/16 07:29:53;;;;;;;57.00;24.17;;;10.50;99.90;;;;;;7367307;19;20481;-46
2022/11/16 07:32:38;;;;;;;46.10;22.60;;;10.50;99.90;;;;;;7365542;19;20374;-46
2022/11/16 07:35:05;;;;;;;35.60;20.45;;;10.50;99.90;;;;;;7362580;19;20022;-45
2022/11/16 07:37:32;;;;;;;54.90;23.90;;;10.50;99.90;;;;;;7367131;19;20018;-47
2022/11/16 07:39:58;;;;;;;37.40;20.35;;;10.50;99.90;;;;;;7366867;19;20367;-47
2022/11/16 07:42:25;;;;;;;42.08;21.83;;;10.50;99.90;;;;;;7366435;19;20078;-46
2022/11/16 07:45:06;;;;;;;34.72;20.40;;;10.50;99.90;;;;;;7365150;19;20019;-48
2022/11/16 07:47:38;;;;;;;40.22;21.38;;;10.50;99.90;;;;;;7368154;19;20023;-46
2022/11/16 07:50:07;;;;;;;45.75;22.17;;;10.50;99.90;;;;;;7364895;19;20048;-46
2022/11/16 07:52:34;;;;;;;39.78;19.50;;;10.50;99.90;;;;;;7364312;19;20374;-45
2022/11/16 07:55:17;;;;;;;42.67;19.98;;;10.50;99.90;;;;;;7366320;19;20006;-45
2022/11/16 07:57:45;;;;;;;30.35;17.45;;;10.40;99.90;;;;;;7365285;19;20017;-46
2022/11/16 08:00:12;;;;;;;28.85;16.98;;;10.40;99.90;;;;;;7368566;19;20017;-47
2022/11/16 08:02:49;;;;;;;24.77;15.55;;;10.30;99.90;;;;;;7365718;19;20512;-46
2022/11/16 08:05:19;;;;;;;23.77;14.48;;;10.40;99.90;;;;;;7367120;19;20626;-48
2022/11/16 08:07:49;;;;;;;27.67;14.90;;;10.30;99.90;;;;;;7365786;19;20498;-46
2022/11/16 08:10:16;;;;;;;22.85;14.35;;;10.30;99.90;;;;;;7365789;19;20018;-46
2022/11/16 08:12:42;;;;;;;22.95;14.07;;;10.30;99.90;;;;;;7369361;19;20491;-45
2022/11/16 08:15:10;;;;;;;18.92;12.25;;;10.30;99.90;;;;;;7363122;19;20467;-47
2022/11/16 08:17:37;;;;;;;27.63;13.98;;;10.30;99.90;;;;;;7366433;19;20022;-46
2022/11/16 08:20:07;;;;;;;21.90;12.68;;;10.30;99.90;;;;;;7363064;19;20291;-47
2022/11/16 08:22:34;;;;;;;29.05;14.18;;;10.30;99.90;;;;;;7364614;19;20026;-47
2022/11/16 08:25:03;;;;;;;24.20;13.32;;;10.30;99.90;;;;;;7360261;19;20021;-48
2022/11/16 08:27:31;;;;;;;27.33;13.57;;;10.30;99.90;;;;;;7362808;19;20018;-48
2022/11/16 08:29:58;;;;;;;22.55;13.30;;;10.30;99.90;;;;;;7365128;19;20022;-46
2022/11/16 08:32:28;;;;;;;29.92;14.18;;;10.30;99.90;;;;;;7366221;19;20033;-46
2022/11/16 08:35:04;;;;;;;20.45;12.20;;;10.40;99.90;;;;;;7363306;19;20489;-48
2022/11/16 08:37:31;;;;;;;19.33;12.25;;;10.40;99.90;;;;;;7364533;19;20042;-46
2022/11/16 08:39:58;;;;;;;17.15;11.02;;;10.30;99.90;;;;;;7362172;19;20022;-45
2022/11/16 08:42:24;;;;;;;19.30;11.57;;;10.40;99.90;;;;;;7364198;19;20022;-45
2022/11/16 08:44:51;;;;;;;27.80;15.15;;;10.40;99.90;;;;;;7362181;19;20554;-46
2022/11/16 08:47:19;;;;;;;34.67;20.58;;;10.40;99.90;;;;;;7364932;19;20026;-47
2022/11/16 08:49:50;;;;;;;44.30;27.00;;;10.40;99.90;;;;;;7360561;19;20026;-46
2022/11/16 08:52:18;;;;;;;53.85;29.92;;;10.50;99.90;;;;;;7361867;19;20014;-47
2022/11/16 08:54:46;;;;;;;69.03;41.70;;;10.50;99.90;;;;;;7361902;19;20477;-47
2022/11/16 08:57:12;;;;;;;73.25;45.92;;;10.60;99.90;;;;;;7362902;19;20045;-46
2022/11/16 08:59:41;;;;;;;86.72;51.67;;;10.60;99.90;;;;;;7361636;19;20440;-45
2022/11/16 09:02:11;;;;;;;88.40;53.85;;;10.70;99.90;;;;;;7362795;19;20579;-44
2022/11/16 09:04:38;;;;;;;83.70;54.17;;;10.80;99.90;;;;;;7363785;19;20106;-44
2022/11/16 09:07:05;;;;;;;89.22;52.88;;;10.80;99.90;;;;;;7373759;19;20023;-46
2022/11/16 09:09:31;;;;;;;96.55;55.05;;;10.90;99.90;;;;;;7369372;19;20019;-46
2022/11/16 09:11:58;;;;;;;108.45;59.75;;;10.90;99.90;;;;;;7371219;19;20030;-46
2022/11/16 09:14:26;;;;;;;97.60;57.38;;;11.00;99.90;;;;;;7369367;19;20099;-48
2022/11/16 09:16:54;;;;;;;93.82;59.95;;;11.10;99.90;;;;;;7370432;19;20014;-45
2022/11/16 09:19:20;;;;;;;108.43;61.83;;;11.20;99.90;;;;;;7374194;19;20054;-48
2022/11/16 09:21:47;;;;;;;78.60;48.88;;;11.20;99.90;;;;;;7369664;19;20026;-47
2022/11/16 09:24:13;;;;;;;79.80;50.38;;;11.30;99.90;;;;;;7370246;19;20022;-46
2022/11/16 09:26:42;;;;;;;70.55;41.10;;;11.30;99.90;;;;;;7354159;19;20036;-44
2022/11/16 09:29:12;;;;;;;65.13;39.25;;;11.30;99.90;;;;;;7366230;19;20044;-45
2022/11/16 09:31:39;;;;;;;50.97;31.83;;;11.50;99.90;;;;;;7367118;19;20026;-44
2022/11/16 09:34:06;;;;;;;40.90;27.10;;;11.90;99.90;;;;;;7367076;19;20461;-45
2022/11/16 09:44:50;;;;;;;27.42;18.77;;;11.90;99.90;;;;;;7367569;19;20006;-44
2022/11/16 09:47:20;;;;;;;27.27;19.60;;;11.80;99.90;;;;;;7369194;19;20486;-45
2022/11/16 09:49:55;;;;;;;27.50;18.95;;;11.80;99.90;;;;;;7367663;19;20029;-47
2022/11/16 09:52:35;;;;;;;29.42;19.88;;;12.10;99.90;;;;;;7372157;19;20683;-45
2022/11/16 09:55:27;;;;;;;25.77;18.88;;;12.40;99.90;;;;;;7366622;19;20033;-45
2022/11/16 09:57:57;;;;;;;24.58;16.75;;;12.50;99.90;;;;;;7371986;19;20035;-44
2022/11/16 10:00:24;;;;;;;25.05;16.88;;;12.60;99.90;;;;;;7370059;19;20639;-47
2022/11/16 10:03:27;;;;;;;17.88;15.10;;;12.60;99.90;;;;;;7369585;19;20667;-44
2022/11/16 10:06:10;;;;;;;21.58;14.73;;;12.60;99.90;;;;;;7370166;19;20098;-46
2022/11/16 10:08:46;;;;;;;19.48;13.52;;;12.60;99.90;;;;;;7370797;19;20010;-45
2022/11/16 10:11:31;;;;;;;18.08;14.55;;;12.60;99.90;;;;;;7372762;19;20336;-46
2022/11/16 10:14:39;;;;;;;14.65;12.63;;;13.10;99.90;;;;;;7370995;19;20015;-45
2022/11/16 10:17:27;;;;;;;17.45;13.32;;;13.40;99.90;;;;;;7364915;19;20556;-46
2022/11/16 10:20:05;;;;;;;19.92;12.55;;;14.10;99.90;;;;;;7370901;19;20017;-46
2022/11/16 10:22:48;;;;;;;13.38;11.68;;;14.80;99.90;;;;;;7373587;19;20026;-45
2022/11/16 10:25:19;;;;;;;11.98;10.07;;;14.70;99.90;;;;;;7368449;19;20018;-45
2022/11/16 10:28:13;;;;;;;14.60;9.65;;;14.60;99.90;;;;;;7368754;19;20014;-45
2022/11/16 10:31:05;;;;;;;13.35;8.57;;;14.40;99.90;;;;;;7366802;19;20369;-46
2022/11/16 10:33:35;;;;;;;;;;;13.90;99.90;;;;;;7372253;19;20022;-45
2022/11/16 10:36:13;;;;;;;10.75;7.13;;;13.50;99.90;;;;;;7367256;19;19926;-45
2022/11/16 10:38:41;;;;;;;9.93;7.32;;;13.20;99.90;;;;;;7369615;19;20022;-45
2022/11/16 10:41:23;;;;;;;9.07;6.55;;;13.00;99.90;;;;;;7371892;19;20092;-45
2022/11/16 10:43:49;;;;;;;10.18;6.13;;;12.90;99.90;;;;;;7369226;19;20506;-47
2022/11/16 10:46:25;;;;;;;10.93;6.75;;;13.40;99.90;;;;;;7367058;19;20028;-44
2022/11/16 10:49:06;;;;;;;9.82;5.35;;;13.90;99.90;;;;;;7367758;19;20017;-45
2022/11/16 10:51:32;;;;;;;8.85;5.38;;;14.20;99.90;;;;;;7371651;19;20485;-46
2022/11/16 10:53:59;;;;;;;9.65;5.45;;;13.80;99.90;;;;;;7369335;19;20018;-46
2022/11/16 10:56:38;;;;;;;8.88;5.15;;;13.60;99.90;;;;;;7367799;19;20033;-44
2022/11/16 10:59:10;;;;;;;9.02;4.88;;;13.30;99.90;;;;;;7369424;19;20014;-44
2022/11/16 11:01:52;;;;;;;9.02;4.45;;;14.00;99.90;;;;;;7373786;19;20043;-45
2022/11/16 11:04:27;;;;;;;7.68;5.25;;;14.60;99.90;;;;;;7371743;19;20541;-45
2022/11/16 11:07:27;;;;;;;8.57;4.78;;;15.10;99.90;;;;;;7370146;19;20532;-44
2022/11/16 11:09:54;;;;;;;11.00;3.92;;;15.70;99.90;;;;;;7362275;19;20549;-45
2022/11/16 11:12:37;;;;;;;8.77;3.50;;;16.00;99.90;;;;;;7367633;19;20673;-45
2022/11/16 11:15:27;;;;;;;8.50;3.35;;;16.10;99.90;;;;;;7365830;19;20014;-45
2022/11/16 11:18:18;;;;;;;7.07;3.67;;;16.60;99.90;;;;;;7361890;19;20605;-45
2022/11/16 11:21:09;;;;;;;12.88;9.02;;;17.20;99.90;;;;;;7369277;19;20022;-45
2022/11/16 11:23:50;;;;;;;4.90;3.13;;;17.60;99.90;;;;;;7365894;19;20470;-46
2022/11/16 11:26:31;;;;;;;6.35;3.05;;;18.30;99.90;;;;;;7359662;19;20018;-48
2022/11/16 11:28:59;;;;;;;7.13;2.53;;;19.00;99.90;;;;;;7362637;19;20474;-47
2022/11/16 11:31:40;;;;;;;8.68;4.05;;;19.20;99.90;;;;;;7368193;19;20572;-42
2022/11/16 11:34:26;;;;;;;6.15;2.63;;;19.40;99.90;;;;;;7364277;19;20573;-42
2022/11/16 11:36:57;;;;;;;5.97;2.60;;;20.00;99.90;;;;;;7366763;19;20010;-46
2022/11/16 11:39:23;;;;;;;6.40;2.50;;;20.10;99.90;;;;;;7365920;19;20058;-45
2022/11/16 11:42:13;;;;;;;6.03;2.15;;;20.30;99.90;;;;;;7369570;19;20031;-47
2022/11/16 11:44:58;;;;;;;5.32;1.95;;;19.60;99.90;;;;;;7365430;19;20071;-51
2022/11/16 11:47:37;;;;;;;5.70;2.30;;;20.00;99.90;;;;;;7368417;19;20038;-47
2022/11/16 11:50:19;;;;;;;5.22;2.15;;;20.10;99.90;;;;;;7358768;19;21772;-48
2022/11/16 11:53:05;;;;;;;5.45;1.83;;;20.20;99.90;;;;;;7365165;19;20022;-45
2022/11/16 11:55:31;;;;;;;6.57;2.00;;;20.10;99.90;;;;;;7363944;19;20498;-46
2022/11/16 11:58:00;;;;;;;7.50;1.85;;;19.70;99.90;;;;;;7362686;19;20029;-47
2022/11/16 12:00:41;;;;;;;4.00;1.90;;;19.40;99.90;;;;;;7364832;19;20038;-46
2022/11/16 12:03:15;;;;;;;5.18;1.77;;;19.80;99.90;;;;;;7361196;19;20022;-45
2022/11/16 12:06:08;;;;;;;4.20;1.70;;;20.00;99.90;;;;;;7363127;19;20102;-46
2022/11/16 12:09:06;;;;;;;4.65;1.80;;;20.10;99.90;;;;;;7363787;19;20019;-46
2022/11/16 12:11:54;;;;;;;6.70;1.80;;;20.40;99.90;;;;;;7367022;19;20464;-47
2022/11/16 12:14:34;;;;;;;8.02;2.42;;;20.40;99.90;;;;;;7362871;19;20104;-47
2022/11/16 12:17:34;;;;;;;6.32;1.90;;;20.60;99.90;;;;;;7360891;19;21644;-48
2022/11/16 12:20:14;;;;;;;7.47;2.78;;;20.60;99.90;;;;;;7362775;19;20517;-47
2022/11/16 12:22:50;;;;;;;6.88;2.28;;;20.20;99.90;;;;;;7360016;19;20023;-50
2022/11/16 12:25:41;;;;;;;5.15;2.17;;;20.20;99.90;;;;;;7362220;19;20089;-46
2022/11/16 12:28:41;;;;;;;8.53;3.13;;;20.00;99.90;;;;;;7356179;19;20019;-44
2022/11/16 12:31:09;;;;;;;5.97;1.73;;;18.50;99.90;;;;;;7359113;19;20630;-44
2022/11/16 12:34:03;;;;;;;4.65;1.77;;;17.80;99.90;;;;;;7362526;19;20033;-47
2022/11/16 12:36:45;;;;;;;5.65;2.00;;;17.20;99.90;;;;;;7358410;19;20018;-46
2022/11/16 12:39:12;;;;;;;;;;;17.00;99.90;;;;;;7355530;19;20457;-50
2022/11/16 12:42:13;;;;;;;7.53;1.85;;;16.60;99.90;;;;;;7358536;19;19919;-51
2022/11/16 12:45:17;;;;;;;8.00;1.92;;;16.20;99.90;;;;;;7356510;19;20533;-48
2022/11/16 12:47:58;;;;;;;6.63;2.25;;;17.10;99.90;;;;;;7357708;19;20023;-49
2022/11/16 12:50:43;;;;;;;8.75;2.47;;;17.80;99.90;;;;;;7358281;19;20114;-46
2022/11/16 12:53:47;;;;;;;6.85;2.45;;;17.00;99.90;;;;;;7362606;19;20476;-46
2022/11/16 12:56:58;;;;;;;5.47;1.90;;;16.40;99.90;;;;;;7360636;19;20014;-49
2022/11/16 12:59:55;;;;;;;9.10;2.40;;;16.60;99.90;;;;;;7359175;19;20018;-50
2022/11/16 13:02:58;;;;;;;9.63;2.40;;;17.50;99.90;;;;;;7357718;19;20022;-47
2022/11/16 13:05:43;;;;;;;10.35;3.17;;;18.30;99.90;;;;;;7362409;19;20018;-43
2022/11/16 13:08:40;;;;;;;10.90;3.95;;;18.60;99.90;;;;;;7360225;19;20019;-47
2022/11/16 13:11:14;;;;;;;11.25;3.72;;;19.10;99.90;;;;;;7363716;19;20014;-46
2022/11/16 13:13:43;;;;;;;8.32;2.38;;;18.40;99.90;;;;;;7364188;19;20019;-47
2022/11/16 13:16:14;;;;;;;6.20;1.75;;;18.00;99.90;;;;;;7363638;19;20396;-44
2022/11/16 13:18:42;;;;;;;11.48;2.10;;;18.10;99.90;;;;;;7362451;19;20475;-44
2022/11/16 13:21:46;;;;;;;8.90;2.28;;;18.30;99.90;;;;;;7364794;19;20538;-48
2022/11/16 13:24:22;;;;;;;7.70;1.90;;;18.10;99.90;;;;;;7361674;19;20010;-48
2022/11/16 13:27:22;;;;;;;14.38;7.70;;;18.60;99.90;;;;;;7364346;19;20019;-47
2022/11/16 13:30:14;;;;;;;16.23;8.90;;;19.00;99.90;;;;;;7364331;19;20031;-47
2022/11/16 13:33:07;;;;;;;16.58;6.88;;;19.50;99.90;;;;;;7366537;19;20715;-44
2022/11/16 13:35:37;;;;;;;10.75;2.90;;;19.90;99.90;;;;;;7366663;19;20050;-48
2022/11/16 13:38:10;;;;;;;15.10;3.13;;;19.80;99.90;;;;;;7362499;19;20022;-45
2022/11/16 13:40:38;;;;;;;12.80;6.05;;;19.50;99.90;;;;;;7365989;19;20035;-44
2022/11/16 13:43:10;;;;;;;35.40;26.77;;;19.40;99.90;;;;;;7367750;19;20444;-47
2022/11/16 13:45:51;;;;;;;61.50;51.63;;;19.60;99.90;;;;;;7361803;19;20474;-47
2022/11/16 13:48:45;;;;;;;10.50;3.38;;;19.80;99.90;;;;;;7363493;19;20767;-48
2022/11/16 13:51:21;;;;;;;28.92;19.95;;;19.50;99.90;;;;;;7367625;19;20478;-47
2022/11/16 13:53:51;;;;;;;9.20;3.13;;;19.70;99.90;;;;;;7368897;19;20387;-46
2022/11/16 13:56:19;;;;;;;24.95;18.23;;;19.60;99.90;;;;;;7367452;19;20023;-46
2022/11/16 13:58:51;;;;;;;16.60;6.35;;;19.20;99.90;;;;;;7371667;19;20026;-46
2022/11/16 14:01:18;;;;;;;9.10;2.88;;;18.90;99.90;;;;;;7370394;19;20041;-44
2022/11/16 14:03:50;;;;;;;15.95;8.50;;;19.10;99.90;;;;;;7370999;19;20034;-45